Time;durP1;ratioP1;P1;durP2;ratioP2;P2;SDS_P1;SDS_P2;PMS_P1;PMS_P2;Temp;Humidity;BMP_temperature;BMP_pressure;BME280_temperature;BME280_humidity;BME280_pressure;Samples;Min_cycle;Max_cycle;Signal;HPM_P1;HPM_P2
2023/10/18 00:01:33;;;;;;;16.20;9.00;;;7.70;99.30;;;;;;5087611;28;20032;-69
2023/10/18 00:04:23;;;;;;;12.68;9.70;;;7.70;99.10;;;;;;5073540;28;20044;-70
2023/10/18 00:07:11;;;;;;;11.40;8.90;;;7.70;99.10;;;;;;5087219;28;20062;-70
2023/10/18 00:09:58;;;;;;;17.40;11.00;;;7.80;99.10;;;;;;5067849;28;20028;-69
2023/10/18 00:12:45;;;;;;;12.27;8.82;;;7.70;99.10;;;;;;5088121;28;20071;-69
2023/10/18 00:15:31;;;;;;;13.48;9.15;;;7.70;99.20;;;;;;5089651;28;20048;-69
2023/10/18 00:18:17;;;;;;;14.70;9.50;;;7.70;99.20;;;;;;5071736;28;20040;-69
2023/10/18 00:21:07;;;;;;;12.63;9.02;;;7.70;99.30;;;;;;5096726;27;20444;-70
2023/10/18 00:23:54;;;;;;;12.88;9.30;;;7.60;99.30;;;;;;5089997;28;20035;-69
2023/10/18 00:26:40;;;;;;;13.85;8.43;;;7.60;99.30;;;;;;5086780;28;20032;-69
2023/10/18 00:29:26;;;;;;;12.00;9.43;;;7.60;99.30;;;;;;5069179;28;20034;-71
2023/10/18 00:32:12;;;;;;;14.90;9.20;;;7.60;99.30;;;;;;5088278;28;20043;-70
2023/10/18 00:34:58;;;;;;;11.63;8.73;;;7.50;99.30;;;;;;5073656;28;20111;-70
2023/10/18 00:37:44;;;;;;;12.57;8.65;;;7.50;99.30;;;;;;5085864;28;20468;-70
2023/10/18 00:43:25;;;;;;;13.50;8.85;;;7.50;99.50;;;;;;5069174;28;20036;-70
2023/10/18 00:46:13;;;;;;;15.48;8.75;;;7.50;99.50;;;;;;5077592;28;20048;-70
2023/10/18 00:49:00;;;;;;;13.27;9.55;;;7.50;99.50;;;;;;5062713;28;20040;-70
2023/10/18 00:51:46;;;;;;;13.93;9.52;;;7.40;99.60;;;;;;5096590;28;20454;-70
2023/10/18 00:54:32;;;;;;;14.85;10.20;;;7.50;99.60;;;;;;5083747;28;20028;-70
2023/10/18 00:57:20;;;;;;;13.77;10.38;;;7.40;99.60;;;;;;5082209;28;20032;-70
2023/10/18 01:00:07;;;;;;;12.95;10.35;;;7.50;99.70;;;;;;5071818;28;20047;-70
2023/10/18 01:02:57;;;;;;;12.70;9.98;;;7.40;99.70;;;;;;5074688;28;20073;-70
2023/10/18 01:06:00;;;;;;;17.30;10.48;;;7.40;99.70;;;;;;5065801;28;20119;-69
2023/10/18 01:08:50;;;;;;;13.38;9.75;;;7.40;99.70;;;;;;5070084;28;20400;-70
2023/10/18 01:11:37;;;;;;;14.48;9.23;;;7.40;99.60;;;;;;5071573;28;20477;-69
2023/10/18 05:11:57;;;;;;;12.75;7.07;;;6.00;99.90;;;;;;5040302;28;20049;-75
2023/10/18 05:14:50;;;;;;;9.43;7.20;;;6.00;99.90;;;;;;5040249;28;20819;-75
2023/10/18 05:17:42;;;;;;;10.82;7.72;;;6.00;99.90;;;;;;5018241;28;20041;-75
2023/10/18 05:20:41;;;;;;;10.15;7.50;;;6.00;99.90;;;;;;5035915;28;20045;-75
2023/10/18 05:23:32;;;;;;;13.43;7.82;;;6.00;99.90;;;;;;5041123;28;20517;-76
2023/10/18 05:26:18;;;;;;;12.63;7.97;;;6.00;99.90;;;;;;5047501;28;20053;-76
2023/10/18 05:29:05;;;;;;;9.93;7.32;;;6.00;99.90;;;;;;5031916;28;20038;-77
2023/10/18 05:32:08;;;;;;;11.38;7.43;;;6.00;99.90;;;;;;5032294;28;20080;-65
2023/10/18 05:35:00;;;;;;;12.85;8.20;;;6.00;99.90;;;;;;5040443;28;20038;-65
2023/10/18 05:40:57;;;;;;;11.13;8.63;;;5.90;99.90;;;;;;5046128;28;20461;-65
2023/10/18 05:43:43;;;;;;;10.75;7.10;;;5.90;99.90;;;;;;5051329;28;20053;-63
2023/10/18 05:46:34;;;;;;;11.57;7.57;;;5.90;99.90;;;;;;5032587;28;20061;-64
2023/10/18 05:49:28;;;;;;;14.65;8.30;;;5.90;99.90;;;;;;5040891;28;20040;-65
2023/10/18 05:54:59;;;;;;;12.55;7.50;;;5.90;99.90;;;;;;5030896;28;20041;-64
2023/10/18 05:57:46;;;;;;;11.32;7.70;;;5.90;99.90;;;;;;5039763;28;20087;-65
2023/10/18 06:00:35;;;;;;;10.55;7.55;;;5.90;99.90;;;;;;5038550;28;20045;-64
2023/10/18 06:03:22;;;;;;;12.13;8.25;;;5.90;99.90;;;;;;5032971;28;20039;-63
2023/10/18 06:06:08;;;;;;;10.57;7.93;;;5.90;99.90;;;;;;5036562;28;20055;-63
2023/10/18 06:08:57;;;;;;;9.85;7.70;;;5.80;99.90;;;;;;5035263;28;20380;-64
2023/10/18 06:11:48;;;;;;;12.27;8.52;;;5.90;99.90;;;;;;5040383;28;20048;-67
2023/10/18 06:14:40;;;;;;;10.40;8.18;;;6.00;99.90;;;;;;5031357;28;20056;-65
2023/10/18 06:17:26;;;;;;;11.98;8.35;;;6.00;99.90;;;;;;5033335;28;20076;-64
2023/10/18 06:20:34;;;;;;;13.45;9.55;;;6.00;99.90;;;;;;5044242;28;20037;-64
2023/10/18 06:23:36;;;;;;;14.23;8.18;;;6.00;99.90;;;;;;5030926;28;20041;-65
2023/10/18 06:26:28;;;;;;;16.55;8.48;;;6.00;99.90;;;;;;5041791;28;20054;-64
2023/10/18 06:29:22;;;;;;;14.57;8.55;;;6.10;99.90;;;;;;5038000;28;20046;-65
2023/10/18 06:32:13;;;;;;;15.38;8.57;;;6.10;99.90;;;;;;5032783;28;20383;-66
2023/10/18 06:34:59;;;;;;;14.18;8.75;;;6.20;99.90;;;;;;5031912;28;20057;-65
2023/10/18 06:37:45;;;;;;;10.93;8.55;;;6.20;99.90;;;;;;5034315;28;20049;-66
2023/10/18 06:40:44;;;;;;;11.80;8.25;;;6.30;99.90;;;;;;5033181;28;20094;-65
2023/10/18 06:43:30;;;;;;;13.35;9.23;;;6.30;99.90;;;;;;5048629;28;20041;-65
2023/10/18 06:46:26;;;;;;;11.63;8.65;;;6.40;99.90;;;;;;5044989;28;20050;-65
2023/10/18 06:49:12;;;;;;;12.07;9.23;;;6.40;99.90;;;;;;5030076;28;20052;-66
2023/10/18 06:52:00;;;;;;;12.00;8.82;;;6.40;99.90;;;;;;5034953;28;20145;-66
2023/10/18 06:54:46;;;;;;;14.43;8.65;;;6.40;99.90;;;;;;5042932;28;20065;-65
2023/10/18 06:57:36;;;;;;;11.25;8.73;;;6.40;99.90;;;;;;5044832;28;20055;-66
2023/10/18 07:00:30;;;;;;;13.23;8.43;;;6.40;99.90;;;;;;5031147;28;20117;-65
2023/10/18 07:03:24;;;;;;;10.05;7.45;;;6.50;99.90;;;;;;5032280;28;20034;-66
2023/10/18 07:06:18;;;;;;;12.48;7.72;;;6.60;99.90;;;;;;5034321;28;20474;-66
2023/10/18 07:09:24;;;;;;;10.38;7.35;;;6.60;99.90;;;;;;5052124;28;20489;-65
2023/10/18 07:12:17;;;;;;;8.57;6.72;;;6.70;99.90;;;;;;5055707;28;20123;-65
2023/10/18 07:15:09;;;;;;;10.70;7.22;;;6.80;99.90;;;;;;5046130;28;20029;-66
2023/10/18 07:17:55;;;;;;;10.70;7.50;;;6.80;99.90;;;;;;5051455;28;20467;-66
2023/10/18 07:20:41;;;;;;;11.77;7.50;;;6.90;99.90;;;;;;5051336;28;20128;-67
2023/10/18 07:23:27;;;;;;;10.40;7.22;;;7.00;99.90;;;;;;5036467;28;20053;-66
2023/10/18 07:26:13;;;;;;;11.48;7.70;;;7.10;99.90;;;;;;5031424;28;20057;-66
2023/10/18 07:28:59;;;;;;;9.52;6.68;;;7.10;99.90;;;;;;5031288;28;20499;-66
2023/10/18 07:31:45;;;;;;;11.75;7.82;;;7.20;99.90;;;;;;5045010;28;20053;-66
2023/10/18 07:34:36;;;;;;;12.48;7.25;;;7.30;99.90;;;;;;5032942;28;20116;-66
2023/10/18 07:37:31;;;;;;;11.63;8.20;;;7.30;99.90;;;;;;5031299;28;20088;-65
2023/10/18 07:40:21;;;;;;;13.43;8.65;;;7.40;99.90;;;;;;5030599;28;20053;-65
2023/10/18 07:43:14;;;;;;;11.38;8.05;;;7.40;99.90;;;;;;5020909;28;20097;-65
2023/10/18 07:46:06;;;;;;;11.35;8.18;;;7.50;99.90;;;;;;5037829;28;20123;-65
2023/10/18 07:49:04;;;;;;;10.20;7.38;;;7.60;99.90;;;;;;5050564;28;20041;-65
2023/10/18 07:51:50;;;;;;;11.68;8.32;;;7.60;99.90;;;;;;5048676;28;20048;-65
2023/10/18 07:54:37;;;;;;;12.55;8.52;;;7.70;99.90;;;;;;5044496;28;20061;-65
2023/10/18 07:57:33;;;;;;;13.60;8.82;;;7.80;99.90;;;;;;5030932;28;20139;-65
2023/10/18 08:00:22;;;;;;;14.23;8.38;;;7.80;99.90;;;;;;5028646;28;20061;-64
2023/10/18 08:03:09;;;;;;;12.40;8.02;;;7.80;99.90;;;;;;5030612;28;20041;-65
2023/10/18 08:05:56;;;;;;;15.20;11.82;;;8.00;99.90;;;;;;5032349;28;20057;-66
2023/10/18 08:08:43;;;;;;;16.33;12.02;;;8.00;99.90;;;;;;5029907;28;20100;-66
2023/10/18 08:11:32;;;;;;;16.33;11.13;;;8.10;99.90;;;;;;5029949;28;20057;-65
2023/10/18 08:14:27;;;;;;;15.88;9.77;;;8.20;99.90;;;;;;5049419;28;20045;-64
2023/10/18 08:17:29;;;;;;;13.80;9.35;;;8.20;99.90;;;;;;5030955;28;20106;-65
2023/10/18 08:26:08;;;;;;;13.05;8.75;;;8.40;99.90;;;;;;5030688;28;21910;-64
2023/10/18 08:28:55;;;;;;;15.70;8.98;;;8.40;99.90;;;;;;5029286;28;20549;-63
2023/10/18 08:31:47;;;;;;;12.65;9.60;;;8.50;99.90;;;;;;5029909;28;20064;-64
2023/10/18 08:34:34;;;;;;;14.85;9.45;;;8.50;99.90;;;;;;5023154;28;20037;-65
2023/10/18 08:37:20;;;;;;;12.85;9.35;;;8.60;99.90;;;;;;5045189;28;20180;-64
2023/10/18 08:40:15;;;;;;;13.85;9.45;;;8.70;99.90;;;;;;5048695;28;20072;-64
2023/10/18 08:43:12;;;;;;;10.93;8.35;;;8.80;99.90;;;;;;5048309;28;20123;-65
2023/10/18 08:46:05;;;;;;;17.40;10.45;;;8.80;99.90;;;;;;5049166;28;20149;-64
2023/10/18 08:48:56;;;;;;;12.02;9.15;;;8.90;99.90;;;;;;5039841;28;20041;-64
2023/10/18 08:51:44;;;;;;;11.45;8.55;;;8.90;99.90;;;;;;5030149;28;20486;-65
2023/10/18 08:54:32;;;;;;;13.77;10.70;;;9.00;99.90;;;;;;5030017;28;20413;-65
2023/10/18 08:57:37;;;;;;;13.80;10.68;;;9.00;99.90;;;;;;5056131;28;20106;-64
2023/10/18 09:03:11;;;;;;;14.85;9.70;;;9.20;99.90;;;;;;5049326;28;20449;-64
2023/10/18 09:06:05;;;;;;;10.68;8.43;;;9.30;99.90;;;;;;5040693;28;20046;-65
2023/10/18 09:09:05;;;;;;;11.57;8.10;;;9.30;99.90;;;;;;5030227;28;20127;-65
2023/10/18 09:11:52;;;;;;;11.65;8.52;;;9.40;99.90;;;;;;5027919;28;20418;-64
2023/10/18 09:14:38;;;;;;;15.77;11.95;;;9.50;99.90;;;;;;5043642;28;20043;-64
2023/10/18 09:17:24;;;;;;;13.45;9.10;;;9.50;99.90;;;;;;5048500;28;20045;-65
2023/10/18 09:20:10;;;;;;;12.98;7.93;;;9.60;99.90;;;;;;5048938;28;20037;-65
2023/10/18 09:23:01;;;;;;;10.27;8.07;;;9.70;99.90;;;;;;5048511;28;20044;-65
2023/10/18 09:26:05;;;;;;;15.13;8.68;;;9.70;99.90;;;;;;5045813;28;20509;-65
2023/10/18 09:28:55;;;;;;;11.43;8.23;;;9.80;99.90;;;;;;5050812;28;20045;-64
2023/10/18 09:32:02;;;;;;;9.80;8.25;;;9.80;99.90;;;;;;5037169;28;20047;-64
2023/10/18 09:34:49;;;;;;;10.80;7.55;;;10.00;99.90;;;;;;5033905;28;20033;-64
2023/10/18 09:37:38;;;;;;;10.45;7.30;;;10.00;99.90;;;;;;5032812;28;20040;-64
2023/10/18 09:40:26;;;;;;;10.98;8.38;;;10.10;99.90;;;;;;5035963;28;20065;-64
2023/10/18 09:43:12;;;;;;;11.23;7.72;;;10.10;99.90;;;;;;5029443;28;20033;-64
2023/10/18 09:45:59;;;;;;;13.43;8.23;;;10.20;99.90;;;;;;5029306;28;20067;-64
2023/10/18 09:48:46;;;;;;;12.35;7.93;;;10.20;99.90;;;;;;5014134;28;20042;-64
2023/10/18 09:51:33;;;;;;;10.30;7.90;;;10.40;99.90;;;;;;5029582;28;20100;-65
2023/10/18 09:54:21;;;;;;;10.32;6.90;;;10.50;99.90;;;;;;5034583;28;20539;-64
2023/10/18 09:57:09;;;;;;;11.82;7.50;;;10.50;99.90;;;;;;5037766;28;20148;-64
2023/10/18 09:59:56;;;;;;;10.20;7.07;;;10.60;99.90;;;;;;5029565;28;20045;-65
2023/10/18 10:02:52;;;;;;;9.20;6.38;;;10.70;99.90;;;;;;5028591;28;20468;-64
2023/10/18 10:05:43;;;;;;;9.07;6.07;;;10.70;99.90;;;;;;5029084;28;20425;-64
2023/10/18 10:08:31;;;;;;;7.75;5.95;;;10.80;99.90;;;;;;5028699;28;20065;-64
2023/10/18 10:11:19;;;;;;;8.98;6.68;;;10.90;99.90;;;;;;5041775;28;20041;-64
2023/10/18 10:14:07;;;;;;;6.65;5.65;;;10.90;99.90;;;;;;5029396;28;20053;-64
2023/10/18 10:17:00;;;;;;;6.65;5.47;;;11.00;99.90;;;;;;5028220;28;20395;-64
2023/10/18 10:19:52;;;;;;;8.15;5.78;;;11.10;99.90;;;;;;5029481;28;20072;-66
2023/10/18 10:22:41;;;;;;;8.63;4.88;;;11.10;99.90;;;;;;5028632;28;20483;-65
2023/10/18 10:25:31;;;;;;;8.38;5.65;;;11.20;99.90;;;;;;5064496;28;20044;-63
2023/10/18 10:29:00;;;;;;;7.32;5.30;;;11.20;99.70;;;;;;5032071;28;20429;-64
2023/10/18 10:31:50;;;;;;;7.10;4.95;;;11.40;99.50;;;;;;5038814;28;20038;-64
2023/10/18 10:34:41;;;;;;;6.40;5.20;;;11.40;99.40;;;;;;5048291;28;20488;-64
2023/10/18 10:37:31;;;;;;;6.43;4.25;;;11.40;99.30;;;;;;5050594;28;20041;-65
2023/10/18 10:43:18;;;;;;;6.65;4.10;;;11.60;98.90;;;;;;5051678;28;20394;-64
2023/10/18 10:46:35;;;;;;;6.32;4.38;;;11.60;98.80;;;;;;5051006;28;20049;-65
2023/10/18 10:49:47;;;;;;;12.38;5.72;;;11.70;98.70;;;;;;5031725;28;20124;-64
2023/10/18 10:52:35;;;;;;;6.32;4.80;;;11.80;98.60;;;;;;5044453;28;20091;-64
2023/10/18 10:55:22;;;;;;;5.60;4.45;;;11.80;98.50;;;;;;5031404;28;20045;-64
2023/10/18 10:58:17;;;;;;;7.53;4.60;;;11.90;98.30;;;;;;5031843;28;20092;-65
2023/10/18 11:01:12;;;;;;;6.30;3.80;;;11.90;98.20;;;;;;5039573;28;20047;-65
2023/10/18 11:03:59;;;;;;;6.05;4.03;;;12.00;98.00;;;;;;5050285;28;20073;-65
2023/10/18 11:06:50;;;;;;;6.82;4.35;;;12.10;97.70;;;;;;5037555;28;20067;-64
2023/10/18 11:09:38;;;;;;;5.25;3.75;;;12.10;97.40;;;;;;5051724;28;20475;-64
2023/10/18 11:12:27;;;;;;;5.35;3.78;;;12.10;96.80;;;;;;5046617;28;20041;-64
2023/10/18 11:15:20;;;;;;;5.32;4.25;;;12.20;96.80;;;;;;5051565;28;20052;-65
2023/10/18 11:18:15;;;;;;;8.52;3.90;;;12.30;96.70;;;;;;5051687;28;20037;-65
2023/10/18 11:21:18;;;;;;;5.53;3.70;;;12.30;96.40;;;;;;5031203;28;20128;-65
2023/10/18 11:24:10;;;;;;;4.60;3.10;;;12.30;96.00;;;;;;5047482;28;20124;-65
2023/10/18 11:26:58;;;;;;;6.13;4.10;;;12.40;95.60;;;;;;5031724;28;20112;-65
2023/10/18 11:29:45;;;;;;;6.32;3.75;;;12.40;95.40;;;;;;5030925;28;20041;-65
2023/10/18 11:32:31;;;;;;;5.38;3.42;;;12.40;95.00;;;;;;5031079;28;20048;-65
2023/10/18 11:35:42;;;;;;;6.90;4.65;;;12.40;95.00;;;;;;5030864;28;20037;-65
2023/10/18 11:38:33;;;;;;;4.70;3.58;;;12.50;95.10;;;;;;5020797;28;20138;-65
2023/10/18 11:41:22;;;;;;;6.53;3.67;;;12.60;95.00;;;;;;5041295;28;20053;-65
2023/10/18 11:44:13;;;;;;;5.03;3.60;;;12.60;94.80;;;;;;5029835;28;20091;-64
2023/10/18 11:47:19;;;;;;;5.13;3.45;;;12.60;94.50;;;;;;5030064;28;20049;-64
2023/10/18 11:50:05;;;;;;;5.18;3.60;;;12.70;94.20;;;;;;5029893;28;20045;-65
2023/10/18 11:52:52;;;;;;;4.60;3.58;;;12.70;94.10;;;;;;5015730;28;20095;-64
2023/10/18 11:55:58;;;;;;;5.78;3.80;;;12.70;94.00;;;;;;5027415;28;20037;-65
2023/10/18 11:59:00;;;;;;;7.32;4.20;;;12.80;94.00;;;;;;5050980;28;20507;-64
2023/10/18 12:01:54;;;;;;;8.35;4.13;;;12.80;94.10;;;;;;5034557;28;20044;-64
2023/10/18 12:04:40;;;;;;;5.32;3.75;;;12.90;94.10;;;;;;5049760;28;20032;-64
2023/10/18 12:07:26;;;;;;;10.05;6.43;;;12.90;94.30;;;;;;5049355;28;20040;-65
2023/10/18 12:10:55;;;;;;;5.22;3.92;;;13.00;94.40;;;;;;5048521;28;20079;-64
2023/10/18 12:13:22;;;;;;;6.43;4.40;;;13.00;94.00;;;;;;5037950;28;20037;-64
2023/10/18 12:16:08;;;;;;;6.85;4.07;;;13.10;93.90;;;;;;5030417;28;20045;-64
2023/10/18 12:18:54;;;;;;;4.95;3.47;;;13.10;93.80;;;;;;5030529;28;20099;-65
2023/10/18 12:21:48;;;;;;;7.20;4.18;;;13.20;93.60;;;;;;5030816;28;20447;-64
2023/10/18 12:24:34;;;;;;;5.70;3.58;;;13.20;93.40;;;;;;5030310;28;20045;-64
2023/10/18 12:30:09;;;;;;;6.07;4.30;;;13.20;93.10;;;;;;5030911;28;20099;-64
2023/10/18 12:32:57;;;;;;;9.05;5.07;;;13.20;92.90;;;;;;5030308;28;20061;-65
2023/10/18 12:35:43;;;;;;;7.85;3.97;;;13.30;92.90;;;;;;5029889;28;20041;-65
2023/10/18 12:38:32;;;;;;;5.30;3.60;;;13.20;93.20;;;;;;5030241;28;20045;-65
2023/10/18 12:41:18;;;;;;;7.53;3.75;;;13.30;93.40;;;;;;5061456;28;20036;-65
2023/10/18 12:44:10;;;;;;;7.30;4.15;;;13.30;93.20;;;;;;5048335;28;20555;-65
2023/10/18 12:46:56;;;;;;;5.28;3.63;;;13.40;92.90;;;;;;5040264;28;20163;-65
2023/10/18 12:49:45;;;;;;;4.43;3.60;;;13.40;92.70;;;;;;5029083;28;20402;-65
2023/10/18 12:52:40;;;;;;;5.13;3.75;;;13.40;92.70;;;;;;5030260;28;20053;-65
2023/10/18 12:55:33;;;;;;;8.90;3.83;;;13.40;92.50;;;;;;5029192;28;20049;-65
2023/10/18 12:58:19;;;;;;;4.95;3.85;;;13.50;92.40;;;;;;5040611;28;20119;-64
2023/10/18 13:01:05;;;;;;;6.15;3.85;;;13.50;92.30;;;;;;5048602;28;20033;-65
2023/10/18 13:03:57;;;;;;;5.97;3.60;;;13.60;92.20;;;;;;5040235;28;20410;-66
2023/10/18 13:06:44;;;;;;;5.85;3.55;;;13.60;92.20;;;;;;5027997;28;20050;-65
2023/10/18 13:09:30;;;;;;;5.55;3.88;;;13.70;92.20;;;;;;5029694;28;20041;-65
2023/10/18 13:12:16;;;;;;;6.80;4.90;;;13.70;92.00;;;;;;5029565;28;20057;-65
2023/10/18 13:15:02;;;;;;;5.30;3.80;;;13.70;91.90;;;;;;5029556;28;20034;-65
2023/10/18 13:17:48;;;;;;;5.22;3.92;;;13.80;91.60;;;;;;5029411;28;20498;-65
2023/10/18 13:20:36;;;;;;;5.35;3.97;;;13.80;91.50;;;;;;5030607;28;20486;-65
2023/10/18 13:23:27;;;;;;;7.53;3.78;;;13.80;91.40;;;;;;5029864;28;20037;-64
2023/10/18 13:26:19;;;;;;;4.72;3.53;;;13.90;91.40;;;;;;5043694;28;20045;-64
2023/10/18 13:29:05;;;;;;;5.45;4.07;;;13.90;91.50;;;;;;5049489;28;20033;-65
2023/10/18 13:31:52;;;;;;;5.65;3.67;;;13.90;91.20;;;;;;5045085;28;20045;-65
2023/10/18 13:34:43;;;;;;;5.15;3.70;;;14.00;91.00;;;;;;5048436;28;20041;-65
2023/10/18 13:37:30;;;;;;;5.43;3.72;;;14.00;91.00;;;;;;5044557;28;20037;-65
2023/10/18 13:40:19;;;;;;;6.50;3.80;;;14.00;90.80;;;;;;5039989;28;20490;-66
2023/10/18 13:43:07;;;;;;;6.78;3.40;;;14.00;90.90;;;;;;5050215;28;20048;-66
2023/10/18 13:45:59;;;;;;;5.60;3.65;;;14.10;90.70;;;;;;5049601;28;20052;-66
2023/10/18 13:48:49;;;;;;;6.38;3.03;;;14.20;90.70;;;;;;5049711;28;20534;-65
2023/10/18 13:51:37;;;;;;;4.75;3.08;;;14.20;90.80;;;;;;5028491;28;20041;-65
2023/10/18 13:54:23;;;;;;;6.13;3.78;;;14.30;90.70;;;;;;5058175;28;20049;-65
2023/10/18 13:57:09;;;;;;;5.30;3.30;;;14.30;90.40;;;;;;5068266;28;20118;-65
2023/10/18 13:59:55;;;;;;;6.30;3.50;;;14.20;90.10;;;;;;5057387;28;20628;-65
2023/10/18 14:02:45;;;;;;;6.38;3.03;;;14.20;90.00;;;;;;5051907;28;20041;-65
2023/10/18 14:05:31;;;;;;;4.25;2.70;;;14.20;89.90;;;;;;5052293;28;20144;-65
2023/10/18 14:08:18;;;;;;;5.88;3.10;;;14.20;89.90;;;;;;5051562;28;20105;-65
2023/10/18 14:11:04;;;;;;;5.25;3.17;;;14.20;89.90;;;;;;5054237;28;20036;-65
2023/10/18 14:13:51;;;;;;;5.15;3.47;;;14.20;89.60;;;;;;5032766;28;20128;-64
2023/10/18 14:16:37;;;;;;;4.70;3.20;;;14.20;89.30;;;;;;5032800;28;20072;-65
2023/10/18 14:19:24;;;;;;;5.97;2.85;;;14.20;88.90;;;;;;5032941;28;20095;-64
2023/10/18 14:22:10;;;;;;;5.47;3.20;;;14.20;88.90;;;;;;5033244;28;20046;-65
2023/10/18 14:24:56;;;;;;;5.93;3.03;;;14.20;88.90;;;;;;5033273;28;20033;-64
2023/10/18 14:27:42;;;;;;;5.38;3.30;;;14.20;88.80;;;;;;5049735;28;20124;-65
2023/10/18 14:30:34;;;;;;;4.55;2.85;;;14.10;88.20;;;;;;5051954;28;20124;-65
2023/10/18 14:33:20;;;;;;;5.20;2.65;;;14.10;88.10;;;;;;5051738;28;20029;-65
2023/10/18 14:36:11;;;;;;;3.95;2.75;;;14.10;87.70;;;;;;5054311;28;20045;-77
2023/10/18 14:38:57;;;;;;;3.42;2.35;;;14.10;87.80;;;;;;5054980;28;20103;-79
2023/10/18 14:41:42;;;;;;;6.63;3.08;;;14.10;87.60;;;;;;5049489;28;20479;-78
2023/10/18 14:44:28;;;;;;;5.05;3.45;;;14.00;87.40;;;;;;5050351;28;20127;-76
2023/10/18 14:47:14;;;;;;;6.43;3.42;;;14.00;87.60;;;;;;5053453;28;20139;-77
2023/10/18 14:50:03;;;;;;;6.60;3.90;;;14.00;87.60;;;;;;5054949;28;20043;-77
2023/10/18 14:52:49;;;;;;;6.30;3.83;;;14.00;87.50;;;;;;5055824;28;20037;-77
2023/10/18 14:55:40;;;;;;;4.80;3.30;;;13.90;87.80;;;;;;5041531;28;20038;-77
2023/10/18 14:58:26;;;;;;;4.50;3.03;;;13.90;87.90;;;;;;5036198;28;20041;-79
2023/10/18 15:01:12;;;;;;;7.90;3.35;;;13.80;87.80;;;;;;5052646;28;20037;-76
2023/10/18 15:03:59;;;;;;;6.35;3.35;;;13.80;87.60;;;;;;5035579;28;20116;-78
2023/10/18 15:06:45;;;;;;;6.97;4.22;;;13.70;87.60;;;;;;5033139;28;20053;-79
2023/10/18 15:09:31;;;;;;;5.57;3.22;;;13.60;87.70;;;;;;5033279;28;20593;-78
2023/10/18 15:12:17;;;;;;;4.80;3.47;;;13.60;87.90;;;;;;5048906;28;20152;-78
2023/10/18 15:15:04;;;;;;;4.65;3.67;;;13.50;87.90;;;;;;5053086;28;20038;-78
2023/10/18 15:17:54;;;;;;;8.35;4.15;;;13.40;87.80;;;;;;5052487;28;20665;-77
2023/10/18 15:20:41;;;;;;;6.20;4.85;;;13.40;88.00;;;;;;5048526;28;20473;-65
2023/10/18 15:23:28;;;;;;;6.57;4.88;;;13.30;88.00;;;;;;5031482;28;20042;-64
2023/10/18 15:26:16;;;;;;;8.80;5.68;;;13.20;88.00;;;;;;5033171;28;20076;-65
2023/10/18 15:29:02;;;;;;;8.80;5.03;;;13.20;88.50;;;;;;5031928;28;20037;-65
2023/10/18 15:31:48;;;;;;;9.23;4.88;;;13.10;87.90;;;;;;5032149;28;20037;-65
2023/10/18 15:34:34;;;;;;;9.38;5.90;;;13.00;88.10;;;;;;5031792;28;20053;-65
2023/10/18 15:37:21;;;;;;;6.88;4.65;;;12.90;88.20;;;;;;5032366;28;20042;-64
2023/10/18 15:40:13;;;;;;;8.32;4.38;;;12.90;88.30;;;;;;5031268;28;20402;-65
2023/10/18 15:42:59;;;;;;;7.20;4.82;;;12.80;88.50;;;;;;5046533;28;20049;-66
2023/10/18 15:45:50;;;;;;;6.07;4.78;;;12.70;88.70;;;;;;5048269;28;20132;-65
2023/10/18 15:48:36;;;;;;;6.97;3.78;;;12.60;88.80;;;;;;5045147;28;20123;-65
2023/10/18 15:51:22;;;;;;;10.07;5.53;;;12.60;89.60;;;;;;5039589;28;20405;-66
2023/10/18 15:54:10;;;;;;;7.97;4.53;;;12.50;89.40;;;;;;5050168;28;20037;-64
2023/10/18 15:56:56;;;;;;;13.15;4.60;;;12.40;89.50;;;;;;5040946;28;20036;-65
2023/10/18 15:59:42;;;;;;;5.70;3.92;;;12.40;89.50;;;;;;5033743;28;20037;-65
2023/10/18 16:02:27;;;;;;;5.25;3.88;;;12.30;89.50;;;;;;5039904;28;20124;-64
2023/10/18 16:05:14;;;;;;;8.00;4.43;;;12.20;89.50;;;;;;5034157;28;20059;-65
2023/10/18 16:07:59;;;;;;;9.15;5.68;;;12.20;89.70;;;;;;5031810;28;20041;-64
2023/10/18 16:10:45;;;;;;;6.53;4.13;;;12.20;89.80;;;;;;5034260;28;20335;-65
2023/10/18 16:13:32;;;;;;;7.72;4.60;;;12.10;90.00;;;;;;5029676;28;20057;-65
2023/10/18 16:16:18;;;;;;;6.90;4.70;;;12.00;90.00;;;;;;5031343;28;20067;-64
2023/10/18 16:19:04;;;;;;;6.13;4.43;;;11.90;90.00;;;;;;5035563;28;20049;-64
2023/10/18 16:21:50;;;;;;;7.75;4.80;;;11.90;90.10;;;;;;5037636;28;20071;-64
2023/10/18 16:24:35;;;;;;;7.78;4.68;;;11.90;90.10;;;;;;5038054;28;20041;-64
2023/10/18 16:27:21;;;;;;;7.20;5.38;;;11.80;90.20;;;;;;5042356;28;20260;-64
2023/10/18 16:30:11;;;;;;;7.43;4.93;;;11.70;90.20;;;;;;5042540;28;20033;-66
2023/10/18 16:32:57;;;;;;;9.98;6.00;;;11.70;90.30;;;;;;5034603;28;20747;-65
2023/10/18 16:35:43;;;;;;;8.10;4.70;;;11.70;90.30;;;;;;5032301;28;20246;-65
2023/10/18 16:38:29;;;;;;;8.48;4.75;;;11.60;90.40;;;;;;5037096;28;20045;-64
2023/10/18 16:41:15;;;;;;;8.48;4.90;;;11.60;90.50;;;;;;5034082;28;20048;-65
2023/10/18 16:44:01;;;;;;;9.43;5.93;;;11.60;90.60;;;;;;5023474;28;20079;-65
2023/10/18 16:46:50;;;;;;;8.18;5.20;;;11.50;90.70;;;;;;5041186;28;20053;-65
2023/10/18 16:49:36;;;;;;;6.80;5.00;;;11.50;90.80;;;;;;5028860;28;20049;-66
2023/10/18 16:52:22;;;;;;;8.80;5.60;;;11.40;90.80;;;;;;5029830;28;20080;-65
2023/10/18 16:55:08;;;;;;;8.80;5.03;;;11.40;90.90;;;;;;5046396;28;20044;-66
2023/10/18 16:57:54;;;;;;;8.18;5.70;;;11.30;91.00;;;;;;5036912;28;20045;-66
2023/10/18 17:00:41;;;;;;;8.10;5.07;;;11.30;91.10;;;;;;5029155;28;20029;-66
2023/10/18 17:03:27;;;;;;;8.15;5.57;;;11.20;91.20;;;;;;5057179;28;20171;-66
2023/10/18 17:06:14;;;;;;;7.63;5.65;;;11.20;91.30;;;;;;5028686;28;20140;-65
2023/10/18 17:09:00;;;;;;;9.18;5.93;;;11.20;91.30;;;;;;5049331;28;20037;-65
2023/10/18 17:11:46;;;;;;;9.57;6.13;;;11.20;91.40;;;;;;5048897;28;20094;-65
2023/10/18 17:14:32;;;;;;;9.23;6.10;;;11.10;91.50;;;;;;5028621;28;20588;-67
2023/10/18 17:17:18;;;;;;;9.68;5.85;;;11.10;91.60;;;;;;5031448;28;20038;-65
2023/10/18 17:20:09;;;;;;;9.50;6.13;;;11.10;91.70;;;;;;5029175;28;20417;-65
2023/10/18 17:22:55;;;;;;;9.77;6.35;;;11.00;91.90;;;;;;5037950;28;20048;-66
2023/10/18 17:25:42;;;;;;;11.30;6.65;;;11.00;92.00;;;;;;5040260;28;20056;-66
2023/10/18 17:28:28;;;;;;;8.75;5.93;;;11.00;92.20;;;;;;5029156;28;20064;-65
2023/10/18 17:31:19;;;;;;;11.25;7.30;;;11.00;92.10;;;;;;5032008;28;20673;-65
2023/10/18 17:34:05;;;;;;;8.38;6.05;;;10.90;92.20;;;;;;5052069;28;20393;-64
2023/10/18 17:36:51;;;;;;;10.68;6.90;;;10.90;92.20;;;;;;5031381;28;20049;-65
2023/10/18 17:39:37;;;;;;;8.05;6.10;;;10.70;92.40;;;;;;5048431;28;20063;-64
2023/10/18 17:42:24;;;;;;;8.57;6.75;;;10.80;92.40;;;;;;5046245;28;20067;-65
2023/10/18 17:45:10;;;;;;;12.38;6.75;;;10.70;92.40;;;;;;5031502;28;20144;-65
2023/10/18 17:47:56;;;;;;;15.27;7.30;;;10.70;92.50;;;;;;5044884;28;20057;-65
2023/10/18 17:50:42;;;;;;;9.70;6.28;;;10.70;92.70;;;;;;5038951;28;20482;-64
2023/10/18 17:53:28;;;;;;;9.90;5.95;;;10.60;92.80;;;;;;5050735;28;20036;-65
2023/10/18 17:56:16;;;;;;;9.35;6.82;;;10.70;92.90;;;;;;5035199;28;20235;-65
2023/10/18 17:59:05;;;;;;;9.55;6.57;;;10.60;92.90;;;;;;5039826;28;20482;-65
2023/10/18 18:01:51;;;;;;;9.30;6.03;;;10.60;93.00;;;;;;5032908;28;20045;-65
2023/10/18 18:04:42;;;;;;;8.10;6.45;;;10.50;93.00;;;;;;5045657;28;20090;-65
2023/10/18 18:07:27;;;;;;;8.10;6.75;;;10.50;93.00;;;;;;5042615;28;20037;-65
2023/10/18 18:10:13;;;;;;;9.57;6.78;;;10.50;93.10;;;;;;5042767;28;20363;-76
2023/10/18 18:13:00;;;;;;;8.85;6.45;;;10.40;93.10;;;;;;5057211;28;20619;-76
2023/10/18 18:15:49;;;;;;;15.32;7.25;;;10.40;93.10;;;;;;5031109;28;20044;-76
2023/10/18 18:18:35;;;;;;;10.27;6.80;;;10.30;93.20;;;;;;5034999;28;20099;-75
2023/10/18 18:21:21;;;;;;;13.68;8.32;;;10.30;93.30;;;;;;5032788;28;20045;-76
2023/10/18 18:24:09;;;;;;;9.32;7.10;;;10.20;93.30;;;;;;5030451;28;20049;-75
2023/10/18 18:26:55;;;;;;;12.10;7.18;;;10.20;93.40;;;;;;5030983;28;20186;-74
2023/10/18 18:29:41;;;;;;;10.70;7.30;;;10.20;93.50;;;;;;5034326;28;20048;-75
2023/10/18 18:32:27;;;;;;;12.15;8.10;;;10.10;93.50;;;;;;5032492;28;20052;-76
2023/10/18 18:35:13;;;;;;;11.75;7.45;;;10.00;93.60;;;;;;5030167;28;20052;-76
2023/10/18 18:37:58;;;;;;;12.20;7.45;;;10.00;93.60;;;;;;5037793;28;20073;-76
2023/10/18 18:40:44;;;;;;;9.30;7.10;;;10.00;93.70;;;;;;5031511;28;20434;-76
2023/10/18 18:43:30;;;;;;;9.15;6.57;;;10.00;93.80;;;;;;5033080;28;24005;-74
2023/10/18 18:46:16;;;;;;;9.13;7.88;;;10.00;93.90;;;;;;5030453;28;20053;-75
2023/10/18 18:49:03;;;;;;;10.98;7.75;;;9.90;93.90;;;;;;5032928;28;20045;-76
2023/10/18 18:51:49;;;;;;;12.15;8.05;;;9.90;93.90;;;;;;5032045;28;20406;-75
2023/10/18 18:54:35;;;;;;;11.05;7.72;;;9.80;94.00;;;;;;5050012;28;20040;-75
2023/10/18 18:57:21;;;;;;;10.60;8.45;;;9.80;94.00;;;;;;5040807;28;20044;-76
2023/10/18 19:00:14;;;;;;;12.27;7.82;;;9.80;94.10;;;;;;5044059;28;20065;-74